Time;durP1;ratioP1;P1;durP2;ratioP2;P2;SDS_P1;SDS_P2;PMS_P1;PMS_P2;Temp;Humidity;BMP_temperature;BMP_pressure;BME280_temperature;BME280_humidity;BME280_pressure;Samples;Min_cycle;Max_cycle;Signal;HPM_P1;HPM_P2
2022/10/24 00:00:05;;;;;;;38.92;28.27;;;13.40;99.90;;;;;;5067004;28;20250;-78
2022/10/24 00:02:54;;;;;;;34.33;28.50;;;13.50;99.90;;;;;;5080880;28;20302;-77
2022/10/24 00:05:44;;;;;;;38.13;29.05;;;13.40;99.90;;;;;;5071594;28;20313;-76
2022/10/24 00:08:33;;;;;;;34.70;27.60;;;13.40;99.90;;;;;;5085918;28;20228;-78
2022/10/24 00:11:25;;;;;;;37.63;28.55;;;13.40;99.90;;;;;;5082351;28;20211;-76
2022/10/24 00:14:14;;;;;;;38.50;29.05;;;13.30;99.90;;;;;;5071305;28;20208;-77
2022/10/24 00:17:03;;;;;;;38.78;28.70;;;13.40;99.90;;;;;;5070079;28;20223;-78
2022/10/24 00:19:53;;;;;;;33.72;28.05;;;13.40;99.90;;;;;;5060235;28;20266;-77
2022/10/24 00:22:41;;;;;;;37.85;27.48;;;13.40;99.90;;;;;;5070896;28;20224;-78
2022/10/24 00:25:30;;;;;;;32.53;28.08;;;13.30;99.90;;;;;;5089175;28;20231;-77
2022/10/24 00:28:20;;;;;;;32.47;26.52;;;13.30;99.90;;;;;;5079568;28;20223;-77
2022/10/24 00:31:14;;;;;;;34.20;27.48;;;13.30;99.90;;;;;;5082668;28;20304;-78
2022/10/24 00:34:03;;;;;;;32.13;26.92;;;13.30;99.90;;;;;;5066896;28;20223;-78
2022/10/24 00:36:52;;;;;;;34.60;27.00;;;13.30;99.90;;;;;;5081510;28;20401;-77
2022/10/24 00:39:41;;;;;;;36.42;26.23;;;13.30;99.90;;;;;;5070360;28;20219;-78
2022/10/24 00:42:29;;;;;;;33.72;27.42;;;13.30;99.90;;;;;;5081071;28;20245;-78
2022/10/24 00:45:40;;;;;;;33.30;27.05;;;13.30;99.90;;;;;;5068012;28;20288;-77
2022/10/24 00:48:34;;;;;;;32.00;25.92;;;13.10;99.90;;;;;;5078617;28;20281;-78
2022/10/24 00:51:25;;;;;;;31.23;27.35;;;13.10;99.90;;;;;;5069427;28;20223;-79
2022/10/24 00:54:15;;;;;;;34.90;26.38;;;13.00;99.90;;;;;;5090147;28;20710;-78
2022/10/24 00:57:08;;;;;;;31.13;26.02;;;13.10;99.90;;;;;;5085448;28;20219;-76
2022/10/24 01:00:03;;;;;;;30.35;25.42;;;12.80;99.90;;;;;;5068613;28;20255;-78
2022/10/24 01:02:53;;;;;;;35.40;26.52;;;12.80;99.90;;;;;;5081638;28;20297;-81
2022/10/24 01:05:56;;;;;;;30.67;25.70;;;12.80;99.90;;;;;;5075900;28;20283;-80
2022/10/24 01:08:50;;;;;;;35.65;26.25;;;12.80;99.90;;;;;;5087216;28;20253;-81
2022/10/24 01:11:51;;;;;;;31.88;26.17;;;12.80;99.90;;;;;;5067330;28;20223;-80
2022/10/24 01:14:50;;;;;;;32.50;26.52;;;12.60;99.90;;;;;;5078293;28;20228;-80
2022/10/24 01:17:45;;;;;;;32.08;26.42;;;12.50;99.90;;;;;;5073384;28;20250;-80
2022/10/24 01:21:01;;;;;;;31.08;26.25;;;12.50;99.90;;;;;;5083321;28;20223;-79
2022/10/24 01:24:20;;;;;;;34.42;26.75;;;12.70;99.90;;;;;;5062097;28;20709;-78
2022/10/24 01:27:28;;;;;;;32.85;26.20;;;12.80;99.90;;;;;;5081223;28;20693;-77
2022/10/24 01:30:19;;;;;;;32.53;25.40;;;12.40;99.90;;;;;;5074381;28;21062;-78
2022/10/24 01:33:17;;;;;;;30.27;26.13;;;12.40;99.90;;;;;;5061012;28;20254;-78
2022/10/24 01:36:10;;;;;;;33.00;25.60;;;12.10;99.90;;;;;;5086511;28;20234;-79
2022/10/24 01:39:05;;;;;;;30.83;25.50;;;12.10;99.90;;;;;;5085215;28;20281;-81
2022/10/24 01:41:56;;;;;;;33.60;26.17;;;11.90;99.90;;;;;;5092488;28;20231;-79
2022/10/24 01:44:49;;;;;;;40.13;25.85;;;11.90;99.90;;;;;;5085623;28;20301;-80
2022/10/24 01:47:43;;;;;;;35.45;26.55;;;11.90;99.90;;;;;;5065649;28;20735;-80
2022/10/24 01:50:35;;;;;;;33.97;25.90;;;11.80;99.90;;;;;;5078355;28;20357;-79
2022/10/24 01:53:27;;;;;;;30.45;25.65;;;11.80;99.90;;;;;;5082184;28;20723;-78
2022/10/24 01:56:16;;;;;;;32.22;25.70;;;11.80;99.90;;;;;;5087646;28;20226;-81
2022/10/24 01:59:05;;;;;;;31.67;25.40;;;11.90;99.90;;;;;;5086938;28;20222;-80
2022/10/24 02:01:59;;;;;;;34.25;26.45;;;11.80;99.90;;;;;;5090637;28;20242;-79
2022/10/24 02:04:55;;;;;;;31.60;25.58;;;11.90;99.90;;;;;;5088894;28;20223;-78
2022/10/24 02:07:48;;;;;;;29.13;23.88;;;12.00;99.90;;;;;;5080433;28;20215;-77
2022/10/24 02:10:44;;;;;;;32.83;25.63;;;12.00;99.90;;;;;;5088265;28;20230;-77
2022/10/24 02:13:38;;;;;;;30.88;25.33;;;11.90;99.90;;;;;;5059397;28;20223;-78
2022/10/24 02:16:27;;;;;;;33.67;26.55;;;11.80;99.90;;;;;;5083528;28;20281;-78
2022/10/24 02:19:17;;;;;;;31.30;25.13;;;11.60;99.90;;;;;;5089997;28;20298;-78
2022/10/24 02:22:17;;;;;;;35.58;26.02;;;11.60;99.90;;;;;;5080133;28;20598;-78
2022/10/24 02:25:10;;;;;;;34.10;24.90;;;11.50;99.90;;;;;;5085983;28;20227;-79
2022/10/24 02:28:07;;;;;;;36.38;25.77;;;11.40;99.90;;;;;;5075367;28;20227;-79
2022/10/24 02:31:00;;;;;;;41.55;24.20;;;11.50;99.90;;;;;;5083651;28;20348;-79
2022/10/24 02:33:51;;;;;;;30.13;24.85;;;11.50;99.90;;;;;;5084039;28;20898;-80
2022/10/24 02:36:43;;;;;;;31.20;24.58;;;11.50;99.90;;;;;;5087784;28;20215;-78
2022/10/24 02:39:39;;;;;;;31.25;24.42;;;11.60;99.90;;;;;;5082377;28;20249;-80
2022/10/24 02:42:29;;;;;;;30.67;24.63;;;11.70;99.90;;;;;;5072252;28;20240;-80
2022/10/24 02:45:19;;;;;;;30.52;24.13;;;11.70;99.90;;;;;;5086510;28;20236;-80
2022/10/24 02:48:11;;;;;;;29.42;23.30;;;11.60;99.90;;;;;;5083081;28;20226;-79
2022/10/24 02:51:00;;;;;;;30.42;23.88;;;11.80;99.90;;;;;;5078876;28;20310;-80
2022/10/24 02:53:51;;;;;;;29.67;23.38;;;11.70;99.90;;;;;;5084131;28;20239;-82
2022/10/24 02:56:47;;;;;;;30.17;23.70;;;11.70;99.90;;;;;;5072032;28;20275;-77
2022/10/24 02:59:36;;;;;;;30.15;24.27;;;11.80;99.90;;;;;;5066069;28;20227;-80
2022/10/24 03:02:25;;;;;;;28.13;22.88;;;11.80;99.90;;;;;;5090629;28;20324;-79
2022/10/24 03:05:13;;;;;;;30.52;22.17;;;11.60;99.90;;;;;;5087777;28;20296;-78
2022/10/24 03:08:02;;;;;;;30.05;23.17;;;11.50;99.90;;;;;;5077356;28;20601;-79
2022/10/24 03:10:54;;;;;;;30.60;23.38;;;11.50;99.90;;;;;;5077930;28;20299;-80
2022/10/24 03:13:44;;;;;;;29.40;23.58;;;11.50;99.90;;;;;;5085138;28;20231;-79
2022/10/24 03:16:33;;;;;;;28.27;22.95;;;11.60;99.90;;;;;;5068916;28;20242;-79
2022/10/24 03:19:22;;;;;;;27.55;21.83;;;11.60;99.90;;;;;;5076547;28;20295;-79
2022/10/24 03:22:11;;;;;;;29.25;22.35;;;11.60;99.90;;;;;;5084169;28;20235;-79
2022/10/24 03:25:02;;;;;;;27.45;22.05;;;11.40;99.90;;;;;;5083397;28;20261;-77
2022/10/24 03:27:54;;;;;;;27.17;22.70;;;11.40;99.90;;;;;;5081460;28;20292;-79
2022/10/24 03:30:44;;;;;;;28.60;22.45;;;11.40;99.90;;;;;;5078671;28;20235;-80
2022/10/24 03:33:33;;;;;;;28.65;22.85;;;11.30;99.90;;;;;;5086129;28;20384;-80
2022/10/24 03:36:22;;;;;;;28.75;22.70;;;11.20;99.90;;;;;;5068569;28;20269;-80
2022/10/24 03:39:10;;;;;;;30.15;22.25;;;11.30;99.90;;;;;;5085049;28;20686;-80
2022/10/24 03:41:59;;;;;;;28.90;22.67;;;11.40;99.90;;;;;;5070950;28;20316;-79
2022/10/24 03:44:48;;;;;;;33.38;24.02;;;11.20;99.90;;;;;;5082444;28;20646;-80
2022/10/24 03:47:38;;;;;;;31.92;24.05;;;11.20;99.90;;;;;;5082248;28;20281;-79
2022/10/24 03:50:27;;;;;;;30.60;23.52;;;11.20;99.90;;;;;;5070660;28;20220;-79
2022/10/24 03:53:15;;;;;;;31.83;22.70;;;11.10;99.90;;;;;;5083370;28;20216;-79
2022/10/24 03:56:04;;;;;;;29.42;22.95;;;11.20;99.90;;;;;;5086807;28;20227;-82
2022/10/24 03:58:53;;;;;;;30.23;24.05;;;11.30;99.90;;;;;;5066154;28;20218;-81
2022/10/24 04:01:46;;;;;;;30.42;24.00;;;11.40;99.90;;;;;;5081622;28;20215;-81
2022/10/24 04:04:36;;;;;;;30.38;23.13;;;11.40;99.90;;;;;;5087131;28;20235;-81
2022/10/24 04:07:25;;;;;;;29.42;23.55;;;11.50;99.90;;;;;;5090259;28;20277;-82
2022/10/24 04:10:13;;;;;;;29.95;23.17;;;11.30;99.90;;;;;;5070379;28;20220;-81
2022/10/24 04:13:02;;;;;;;29.30;24.00;;;11.40;99.90;;;;;;5085361;28;20254;-79
2022/10/24 04:15:54;;;;;;;30.17;24.13;;;11.50;99.90;;;;;;5082456;28;20234;-79
2022/10/24 04:18:43;;;;;;;29.20;23.90;;;11.40;99.90;;;;;;5098754;28;20222;-77
2022/10/24 04:21:33;;;;;;;31.63;23.48;;;11.30;99.90;;;;;;5070071;28;20223;-76
2022/10/24 04:24:22;;;;;;;32.30;24.67;;;11.30;99.90;;;;;;5078338;28;20239;-78
2022/10/24 04:27:10;;;;;;;30.55;23.88;;;11.30;99.90;;;;;;5063155;28;20231;-77
2022/10/24 04:29:59;;;;;;;33.70;24.77;;;11.30;99.90;;;;;;5087054;28;20239;-78
2022/10/24 04:32:48;;;;;;;35.90;26.10;;;11.40;99.90;;;;;;5068741;28;20338;-80
2022/10/24 04:35:37;;;;;;;31.05;24.25;;;11.40;99.90;;;;;;5067251;28;20870;-79
2022/10/24 04:38:27;;;;;;;30.55;25.10;;;11.30;99.90;;;;;;5080258;28;20269;-78
2022/10/24 04:41:21;;;;;;;35.40;24.65;;;11.40;99.90;;;;;;5061625;28;20228;-80
2022/10/24 04:44:09;;;;;;;33.55;24.65;;;11.50;99.90;;;;;;5069079;28;20376;-79
2022/10/24 04:46:58;;;;;;;33.40;24.75;;;11.40;99.90;;;;;;5083275;28;20362;-80
2022/10/24 04:49:47;;;;;;;31.75;25.05;;;11.50;99.90;;;;;;5077396;28;20304;-80
2022/10/24 04:52:35;;;;;;;31.33;23.52;;;11.50;99.90;;;;;;5069847;28;20227;-78
2022/10/24 04:55:29;;;;;;;31.58;24.15;;;11.50;99.90;;;;;;5080489;28;20230;-79
2022/10/24 04:58:18;;;;;;;35.00;25.17;;;11.50;99.90;;;;;;5067483;28;20315;-84
2022/10/24 05:01:06;;;;;;;35.67;23.85;;;11.40;99.90;;;;;;5073654;28;20706;-78
2022/10/24 05:03:56;;;;;;;33.00;24.73;;;11.50;99.90;;;;;;5074118;28;20235;-77
2022/10/24 05:06:45;;;;;;;30.02;24.45;;;11.50;99.90;;;;;;5067764;28;20281;-78
2022/10/24 05:09:38;;;;;;;32.83;23.95;;;11.50;99.90;;;;;;5083948;28;20226;-82
2022/10/24 05:12:28;;;;;;;33.78;24.45;;;11.60;99.90;;;;;;5083436;28;20310;-81
2022/10/24 05:15:17;;;;;;;31.02;25.05;;;11.60;99.90;;;;;;5082073;28;20706;-82
2022/10/24 05:18:06;;;;;;;32.45;24.63;;;11.50;99.90;;;;;;5088281;28;20226;-82
2022/10/24 05:20:56;;;;;;;30.63;24.40;;;11.50;99.90;;;;;;5066223;28;20698;-79
2022/10/24 05:23:45;;;;;;;33.53;25.42;;;11.40;99.90;;;;;;5086582;28;20227;-77
2022/10/24 05:26:33;;;;;;;31.83;24.88;;;11.60;99.90;;;;;;5082202;28;20219;-77
2022/10/24 05:29:24;;;;;;;32.58;25.45;;;11.60;99.90;;;;;;5083345;28;20298;-78
2022/10/24 05:32:13;;;;;;;34.45;26.30;;;11.60;99.90;;;;;;5066922;28;20231;-77
2022/10/24 05:35:02;;;;;;;32.38;25.25;;;11.50;99.90;;;;;;5090583;28;20219;-78
2022/10/24 05:37:51;;;;;;;32.92;24.08;;;11.50;99.90;;;;;;5086653;28;20230;-77
2022/10/24 05:40:40;;;;;;;35.47;25.08;;;11.40;99.90;;;;;;5086576;28;20219;-78
2022/10/24 05:43:28;;;;;;;39.85;25.27;;;11.50;99.90;;;;;;5089022;28;20231;-77
2022/10/24 05:46:19;;;;;;;34.95;25.50;;;11.70;99.90;;;;;;5084189;28;20302;-82
2022/10/24 05:49:07;;;;;;;31.42;25.95;;;11.80;99.90;;;;;;5069148;28;20586;-78
2022/10/24 05:51:57;;;;;;;31.48;24.80;;;11.70;99.90;;;;;;5069641;28;20820;-79
2022/10/24 05:54:46;;;;;;;32.42;24.55;;;11.80;99.90;;;;;;5078351;28;20272;-81
2022/10/24 05:57:50;;;;;;;30.67;24.38;;;11.90;99.90;;;;;;5087564;28;20309;-82
2022/10/24 06:00:39;;;;;;;33.53;25.08;;;11.90;99.90;;;;;;5079927;28;20343;-78
2022/10/24 06:03:29;;;;;;;32.90;25.23;;;11.80;99.90;;;;;;5092159;28;20222;-81
2022/10/24 06:06:18;;;;;;;34.05;25.25;;;11.80;99.90;;;;;;5072039;28;20220;-81
2022/10/24 06:09:07;;;;;;;34.25;24.77;;;11.80;99.90;;;;;;5073713;28;20275;-79
2022/10/24 06:11:55;;;;;;;33.58;25.90;;;11.90;99.90;;;;;;5074790;28;20238;-80
2022/10/24 06:14:45;;;;;;;39.40;24.73;;;12.00;99.90;;;;;;5082406;28;20230;-80
2022/10/24 06:17:35;;;;;;;33.05;25.92;;;12.00;99.90;;;;;;5069282;28;20250;-78
2022/10/24 06:20:25;;;;;;;32.67;24.45;;;12.10;99.90;;;;;;5090456;28;20251;-86
2022/10/24 06:23:14;;;;;;;34.25;25.70;;;12.20;99.90;;;;;;5094297;28;20242;-89
2022/10/24 06:26:06;;;;;;;32.78;25.90;;;12.20;99.90;;;;;;5078727;28;20231;-87
2022/10/24 06:28:55;;;;;;;36.40;25.48;;;12.10;99.90;;;;;;5083845;28;20259;-83
2022/10/24 06:31:44;;;;;;;30.38;24.50;;;12.10;99.90;;;;;;5083993;28;20239;-82
2022/10/24 06:34:33;;;;;;;34.33;24.92;;;12.30;99.90;;;;;;5085372;28;20296;-81
2022/10/24 06:37:23;;;;;;;34.72;24.95;;;12.30;99.90;;;;;;5088156;28;20222;-81
2022/10/24 06:40:15;;;;;;;30.10;24.13;;;12.30;99.90;;;;;;5081169;28;20706;-79
2022/10/24 06:43:04;;;;;;;34.83;25.60;;;12.30;99.90;;;;;;5084161;28;20224;-79
2022/10/24 06:45:54;;;;;;;32.53;25.15;;;12.20;99.90;;;;;;5060925;28;21423;-81
2022/10/24 06:48:43;;;;;;;32.47;25.88;;;12.20;99.90;;;;;;5084140;28;20246;-83
2022/10/24 06:51:32;;;;;;;35.58;26.52;;;12.10;99.90;;;;;;5071078;28;20356;-80
2022/10/24 06:54:22;;;;;;;31.77;24.60;;;12.10;99.90;;;;;;5083738;28;20227;-78
2022/10/24 06:57:16;;;;;;;33.03;25.27;;;12.20;99.90;;;;;;5080651;28;20755;-79
2022/10/24 07:00:07;;;;;;;34.50;25.80;;;12.30;99.90;;;;;;5082974;28;20306;-77
2022/10/24 07:02:57;;;;;;;33.60;24.92;;;12.30;99.90;;;;;;5085355;28;20211;-80
2022/10/24 07:05:45;;;;;;;34.13;24.58;;;12.20;99.90;;;;;;5081466;27;20239;-78
2022/10/24 07:08:34;;;;;;;33.65;24.88;;;12.30;99.90;;;;;;5068925;28;20230;-77
2022/10/24 07:11:25;;;;;;;31.08;24.67;;;12.40;99.90;;;;;;5083337;28;20324;-79
2022/10/24 07:14:13;;;;;;;32.38;25.05;;;12.40;99.90;;;;;;5060863;28;20250;-77
2022/10/24 07:17:02;;;;;;;34.33;25.17;;;12.40;99.90;;;;;;5083093;28;20228;-80
2022/10/24 07:19:55;;;;;;;35.15;25.88;;;12.40;99.90;;;;;;5082017;28;20320;-82
2022/10/24 07:22:44;;;;;;;34.78;24.15;;;12.50;99.90;;;;;;5086234;28;20216;-82
2022/10/24 07:25:33;;;;;;;33.10;24.38;;;12.50;99.90;;;;;;5081042;28;20229;-82
2022/10/24 07:28:24;;;;;;;31.75;23.48;;;12.50;99.90;;;;;;5081022;28;20227;-80
2022/10/24 07:31:16;;;;;;;30.15;22.92;;;12.60;99.90;;;;;;5081060;28;20237;-78
2022/10/24 07:34:08;;;;;;;32.78;23.95;;;12.60;99.90;;;;;;5082068;28;20281;-79
2022/10/24 07:36:57;;;;;;;30.70;23.42;;;12.50;99.90;;;;;;5065661;28;20392;-80
2022/10/24 07:39:46;;;;;;;27.27;22.13;;;12.60;99.90;;;;;;5081083;28;20227;-79
2022/10/24 07:42:34;;;;;;;33.45;24.33;;;12.50;99.90;;;;;;5083418;28;20724;-79
2022/10/24 07:45:26;;;;;;;30.88;24.05;;;12.50;99.90;;;;;;5066819;28;20230;-79
2022/10/24 07:48:15;;;;;;;32.15;23.67;;;12.60;99.90;;;;;;5090099;28;20314;-80
2022/10/24 07:51:06;;;;;;;30.05;23.80;;;12.50;99.90;;;;;;5071824;28;20757;-80
2022/10/24 07:53:56;;;;;;;32.53;26.17;;;12.40;99.90;;;;;;5081431;28;20764;-80
2022/10/24 07:56:45;;;;;;;30.63;23.92;;;12.50;99.90;;;;;;5067288;28;20231;-80
2022/10/24 07:59:34;;;;;;;31.40;23.83;;;12.60;99.90;;;;;;5082726;28;20254;-80
2022/10/24 08:02:31;;;;;;;29.95;23.20;;;12.80;99.90;;;;;;5087369;27;20253;-80
2022/10/24 08:05:20;;;;;;;33.88;24.23;;;12.90;99.90;;;;;;5068128;28;20227;-80
2022/10/24 08:08:10;;;;;;;31.90;23.48;;;12.90;99.90;;;;;;5077350;28;20358;-81
2022/10/24 08:11:21;;;;;;;33.95;24.70;;;12.90;99.90;;;;;;5082295;28;20219;-80
2022/10/24 08:14:10;;;;;;;31.35;23.08;;;13.00;99.90;;;;;;5069689;28;20302;-81
2022/10/24 08:16:59;;;;;;;31.95;23.40;;;13.00;99.90;;;;;;5097892;28;20214;-80
2022/10/24 08:19:50;;;;;;;30.15;22.65;;;13.00;99.90;;;;;;5082754;28;20234;-80
2022/10/24 08:22:39;;;;;;;33.22;23.38;;;13.10;99.90;;;;;;5083944;28;20282;-81
2022/10/24 08:25:27;;;;;;;29.83;23.48;;;13.10;99.90;;;;;;5078126;28;20227;-80
2022/10/24 08:28:16;;;;;;;27.95;22.63;;;13.20;99.90;;;;;;5060694;28;20292;-80
2022/10/24 08:31:07;;;;;;;28.63;22.83;;;13.30;99.90;;;;;;5080845;28;20238;-81
2022/10/24 08:33:56;;;;;;;31.63;22.20;;;13.20;99.90;;;;;;5083209;28;20709;-80
2022/10/24 08:36:47;;;;;;;32.25;23.33;;;13.20;99.90;;;;;;5086414;28;20231;-80
2022/10/24 08:39:37;;;;;;;28.83;22.85;;;13.30;99.90;;;;;;5078815;28;20693;-80
2022/10/24 08:42:31;;;;;;;30.58;23.75;;;13.30;99.90;;;;;;5060835;28;20695;-80
2022/10/24 08:45:30;;;;;;;30.13;23.17;;;13.20;99.90;;;;;;5043007;28;20220;-79
2022/10/24 08:48:27;;;;;;;32.70;23.73;;;13.30;99.90;;;;;;5067858;28;20239;-88
2022/10/24 08:51:26;;;;;;;30.13;22.85;;;13.30;99.90;;;;;;5062676;28;20216;-80
2022/10/24 08:54:21;;;;;;;32.20;24.20;;;13.40;99.90;;;;;;5053689;28;20220;-84
2022/10/24 08:57:19;;;;;;;28.65;20.80;;;13.40;99.90;;;;;;5072609;28;20317;-81
2022/10/24 09:00:16;;;;;;;27.80;20.77;;;13.60;99.90;;;;;;5051043;28;20224;-87
2022/10/24 09:03:18;;;;;;;29.42;20.42;;;13.60;99.90;;;;;;5068724;28;20220;-80
2022/10/24 09:06:29;;;;;;;26.67;20.00;;;13.80;99.90;;;;;;5049276;28;21930;-80
2022/10/24 09:09:24;;;;;;;30.35;19.85;;;14.00;99.90;;;;;;5059577;28;20239;-80
2022/10/24 09:12:15;;;;;;;25.95;19.13;;;14.00;99.90;;;;;;5062505;28;20227;-82
2022/10/24 09:15:19;;;;;;;25.65;19.15;;;13.90;99.90;;;;;;5063589;28;20220;-81
2022/10/24 09:18:13;;;;;;;30.77;20.83;;;14.10;99.90;;;;;;5065184;28;20232;-82
2022/10/24 09:21:02;;;;;;;26.80;19.73;;;14.20;99.90;;;;;;5051532;28;20245;-83
2022/10/24 09:23:52;;;;;;;26.90;20.00;;;14.20;99.90;;;;;;5057764;28;20242;-81
2022/10/24 09:26:44;;;;;;;25.23;20.15;;;14.20;99.90;;;;;;5052816;28;21046;-81
2022/10/24 09:29:34;;;;;;;25.92;20.33;;;14.30;99.90;;;;;;5046327;28;20706;-81
2022/10/24 09:32:26;;;;;;;27.27;20.38;;;14.40;99.90;;;;;;5064760;28;20224;-81
2022/10/24 09:35:19;;;;;;;25.60;19.83;;;14.50;99.90;;;;;;5065945;28;20216;-79
2022/10/24 09:38:32;;;;;;;29.90;19.25;;;14.60;99.90;;;;;;5040854;28;20236;-80
2022/10/24 09:41:23;;;;;;;24.05;18.85;;;14.70;99.90;;;;;;5048565;28;20685;-79
2022/10/24 09:44:32;;;;;;;27.83;19.85;;;14.70;99.90;;;;;;5054234;28;20216;-83
2022/10/24 09:47:25;;;;;;;24.98;17.90;;;14.80;99.90;;;;;;5046044;28;20294;-79
2022/10/24 09:50:20;;;;;;;26.48;18.67;;;14.80;99.90;;;;;;5047438;28;20221;-79
2022/10/24 09:53:24;;;;;;;24.75;18.52;;;14.80;99.90;;;;;;5064635;28;20338;-80
2022/10/24 09:56:14;;;;;;;24.50;18.92;;;14.80;99.90;;;;;;5071683;28;20239;-79
2022/10/24 09:59:36;;;;;;;24.00;18.70;;;14.80;99.90;;;;;;5066994;28;20231;-80
2022/10/24 10:02:26;;;;;;;25.15;18.25;;;14.90;99.90;;;;;;4991652;28;20329;-80
2022/10/24 10:05:20;;;;;;;24.88;18.77;;;15.00;99.90;;;;;;5058043;28;20338;-80
2022/10/24 10:08:15;;;;;;;22.70;18.40;;;15.00;99.90;;;;;;5063398;28;20236;-81
2022/10/24 10:11:07;;;;;;;21.45;17.92;;;15.10;99.90;;;;;;5043916;28;20234;-81
2022/10/24 10:13:55;;;;;;;25.60;18.58;;;15.10;99.90;;;;;;5063445;28;20212;-81
2022/10/24 10:16:46;;;;;;;22.02;18.38;;;15.10;99.90;;;;;;5067316;28;20215;-81
2022/10/24 10:19:37;;;;;;;25.08;18.55;;;15.10;99.90;;;;;;5061752;28;20337;-81
2022/10/24 10:22:27;;;;;;;26.15;17.50;;;15.20;99.90;;;;;;5056492;28;20216;-82
2022/10/24 10:25:30;;;;;;;23.77;17.20;;;15.20;99.90;;;;;;5066970;28;20227;-80
2022/10/24 10:28:21;;;;;;;21.75;17.05;;;15.30;99.90;;;;;;5062709;28;20223;-81
2022/10/24 10:31:10;;;;;;;22.92;17.85;;;15.40;99.90;;;;;;5058020;28;20232;-81
2022/10/24 10:34:21;;;;;;;23.83;17.52;;;15.40;99.90;;;;;;5076294;28;20784;-80
2022/10/24 10:37:27;;;;;;;21.48;17.58;;;15.40;99.90;;;;;;5048709;28;20699;-80
2022/10/24 10:40:29;;;;;;;23.27;16.38;;;15.40;99.90;;;;;;5058828;28;20710;-77
2022/10/24 10:43:30;;;;;;;24.10;16.65;;;15.50;99.90;;;;;;5060829;28;20833;-81
2022/10/24 10:46:28;;;;;;;22.55;17.17;;;15.50;99.90;;;;;;5048571;28;20219;-81
2022/10/24 10:49:24;;;;;;;22.95;16.83;;;15.60;99.90;;;;;;5060810;28;20219;-81
2022/10/24 10:52:18;;;;;;;22.60;16.95;;;15.60;99.90;;;;;;5057650;28;20212;-82
2022/10/24 10:55:27;;;;;;;23.23;16.67;;;15.60;99.90;;;;;;5064427;28;20227;-79
2022/10/24 10:58:28;;;;;;;21.05;16.10;;;15.50;99.90;;;;;;5041729;28;20231;-79
2022/10/24 11:01:25;;;;;;;20.45;15.63;;;15.60;99.90;;;;;;5045986;28;20212;-78
2022/10/24 11:04:23;;;;;;;23.45;15.60;;;15.70;99.90;;;;;;5062624;28;20227;-79
2022/10/24 11:07:18;;;;;;;25.05;15.82;;;15.70;99.90;;;;;;5062070;28;20223;-80
2022/10/24 11:10:11;;;;;;;19.80;15.43;;;15.80;99.90;;;;;;5058311;28;20235;-78
2022/10/24 11:13:04;;;;;;;22.75;15.95;;;15.80;99.90;;;;;;5061953;28;20897;-78
2022/10/24 11:15:56;;;;;;;21.80;16.15;;;15.80;99.90;;;;;;5058522;28;20690;-82
2022/10/24 11:18:52;;;;;;;21.13;16.02;;;15.80;99.90;;;;;;5055763;28;20227;-80
2022/10/24 11:21:43;;;;;;;20.30;16.02;;;15.80;99.90;;;;;;5066015;28;20308;-79
2022/10/24 11:24:38;;;;;;;23.02;16.77;;;15.90;99.90;;;;;;5049606;28;20224;-79
2022/10/24 11:27:36;;;;;;;21.63;16.02;;;16.00;99.90;;;;;;5045818;28;20220;-77
2022/10/24 11:30:41;;;;;;;21.17;15.88;;;16.00;99.90;;;;;;5061302;28;20629;-79
2022/10/24 11:33:36;;;;;;;24.80;15.43;;;16.00;99.90;;;;;;5048816;28;20223;-78
2022/10/24 11:36:32;;;;;;;21.13;15.38;;;16.00;99.90;;;;;;5043953;28;20231;-80
2022/10/24 11:39:25;;;;;;;18.77;14.32;;;16.10;99.90;;;;;;5041641;28;20248;-80
2022/10/24 11:42:20;;;;;;;20.85;14.55;;;16.20;99.90;;;;;;5042895;28;20343;-79
2022/10/24 11:45:13;;;;;;;22.33;15.13;;;16.10;99.90;;;;;;5056052;28;20223;-79
2022/10/24 11:48:14;;;;;;;20.35;14.93;;;16.10;99.90;;;;;;5042164;28;20311;-79
2022/10/24 11:51:09;;;;;;;23.88;14.85;;;16.20;99.90;;;;;;5060914;28;20220;-79
2022/10/24 11:54:01;;;;;;;21.88;13.95;;;16.30;99.90;;;;;;5056187;28;20267;-80
2022/10/24 11:56:54;;;;;;;18.73;12.93;;;16.30;99.90;;;;;;5037127;28;20224;-79
2022/10/24 11:59:43;;;;;;;15.65;12.40;;;16.30;99.90;;;;;;5049673;28;20291;-79
2022/10/24 12:03:15;;;;;;;12.88;11.52;;;16.30;99.90;;;;;;5064073;28;20220;-78
2022/10/24 12:06:22;;;;;;;17.73;12.30;;;16.30;99.90;;;;;;5059997;28;20228;-80
2022/10/24 12:09:33;;;;;;;18.05;12.38;;;16.40;99.90;;;;;;5064275;28;20679;-80
2022/10/24 12:12:41;;;;;;;16.67;11.88;;;16.50;99.90;;;;;;5072322;28;20641;-80
2022/10/24 12:15:45;;;;;;;15.77;11.82;;;16.50;99.90;;;;;;5059681;28;20223;-80
2022/10/24 12:18:37;;;;;;;19.33;11.98;;;16.40;99.90;;;;;;5049874;28;20220;-81
2022/10/24 12:21:28;;;;;;;16.20;12.15;;;16.40;99.90;;;;;;5056265;28;20227;-81
2022/10/24 12:24:24;;;;;;;14.10;10.75;;;16.40;99.90;;;;;;5061595;28;20734;-79
2022/10/24 12:27:28;;;;;;;13.80;10.82;;;16.30;99.90;;;;;;5048464;28;20223;-84
2022/10/24 12:30:23;;;;;;;14.45;10.45;;;16.30;99.90;;;;;;5061699;28;20238;-78
2022/10/24 12:33:24;;;;;;;17.98;10.82;;;16.40;99.90;;;;;;5026952;28;20624;-78
2022/10/24 12:36:13;;;;;;;12.20;9.43;;;16.40;99.90;;;;;;5027173;28;20236;-78
2022/10/24 12:39:04;;;;;;;16.00;9.40;;;16.40;99.90;;;;;;5039014;28;20236;-80
2022/10/24 12:41:54;;;;;;;13.32;9.60;;;16.40;99.90;;;;;;5025508;28;20235;-80
2022/10/24 12:44:45;;;;;;;13.63;10.05;;;16.40;99.90;;;;;;5035305;28;20944;-80
2022/10/24 12:47:40;;;;;;;16.08;10.82;;;16.40;99.90;;;;;;5043691;28;20231;-80
2022/10/24 12:51:10;;;;;;;16.75;9.82;;;16.40;99.90;;;;;;5024271;28;20225;-79
2022/10/24 12:54:15;;;;;;;15.02;9.57;;;16.60;99.90;;;;;;5045498;28;20231;-79
2022/10/24 12:57:25;;;;;;;15.43;10.30;;;16.70;99.90;;;;;;5032818;28;20217;-82
2022/10/24 13:00:24;;;;;;;13.30;9.90;;;16.70;99.90;;;;;;5016883;28;20230;-82
2022/10/24 13:03:21;;;;;;;14.23;10.02;;;16.60;99.90;;;;;;5037401;28;20225;-82
2022/10/24 13:06:21;;;;;;;12.68;10.50;;;16.60;99.90;;;;;;5043927;28;20215;-84
2022/10/24 13:09:28;;;;;;;12.85;9.75;;;16.60;99.90;;;;;;5022655;28;20677;-84
2022/10/24 13:12:35;;;;;;;12.60;9.35;;;16.60;99.90;;;;;;5023829;28;20966;-83
2022/10/24 13:15:30;;;;;;;13.13;10.10;;;16.60;99.90;;;;;;5025387;28;20214;-85
2022/10/24 13:18:33;;;;;;;13.10;9.60;;;16.60;99.90;;;;;;5047971;28;20271;-85
2022/10/24 13:21:27;;;;;;;17.02;9.60;;;16.60;99.90;;;;;;5052190;28;20225;-83
2022/10/24 13:24:27;;;;;;;13.90;9.40;;;16.60;99.90;;;;;;5030602;28;20834;-84
2022/10/24 13:27:29;;;;;;;14.00;9.35;;;16.60;99.90;;;;;;5036285;28;20217;-83
2022/10/24 13:30:27;;;;;;;11.73;8.98;;;16.60;99.90;;;;;;5027509;28;20236;-84
2022/10/24 13:33:42;;;;;;;15.65;9.85;;;16.50;99.90;;;;;;5058384;28;20216;-80
2022/10/24 13:36:32;;;;;;;15.55;10.23;;;16.60;99.90;;;;;;5047384;28;20216;-85
2022/10/24 13:39:26;;;;;;;16.40;9.80;;;16.60;99.90;;;;;;5056007;28;20212;-84
2022/10/24 13:42:26;;;;;;;12.70;9.02;;;16.60;99.90;;;;;;5061289;28;20219;-82
2022/10/24 13:45:26;;;;;;;12.02;9.27;;;16.50;99.90;;;;;;5058017;28;20226;-80
2022/10/24 13:48:18;;;;;;;14.43;10.20;;;16.60;99.90;;;;;;5047603;28;20350;-81
2022/10/24 13:51:15;;;;;;;19.33;9.48;;;16.50;99.90;;;;;;5045474;28;20228;-81
2022/10/24 13:54:11;;;;;;;14.85;9.77;;;16.60;99.90;;;;;;5048429;28;20242;-81
2022/10/24 13:57:00;;;;;;;15.10;9.02;;;16.60;99.90;;;;;;5063505;28;20606;-82
2022/10/24 13:59:55;;;;;;;13.93;10.07;;;16.60;99.90;;;;;;5066221;28;20220;-80
2022/10/24 14:02:44;;;;;;;14.95;9.75;;;16.60;99.90;;;;;;5055418;28;20701;-82
2022/10/24 14:05:38;;;;;;;11.80;9.25;;;16.60;99.90;;;;;;5053239;28;20862;-80
2022/10/24 14:08:31;;;;;;;15.65;10.50;;;16.60;99.90;;;;;;5066897;28;20216;-80
2022/10/24 14:11:22;;;;;;;15.35;10.43;;;16.60;99.90;;;;;;5062814;28;20225;-79
2022/10/24 14:14:26;;;;;;;20.42;9.85;;;16.60;99.90;;;;;;5055077;28;20668;-80
2022/10/24 14:17:21;;;;;;;14.93;9.98;;;16.60;99.90;;;;;;5059939;28;20228;-80
2022/10/24 14:20:22;;;;;;;14.65;9.55;;;16.50;99.90;;;;;;5070027;28;20227;-81
2022/10/24 14:23:25;;;;;;;12.85;9.73;;;16.50;99.90;;;;;;5060867;28;20322;-80
2022/10/24 14:26:17;;;;;;;11.65;9.45;;;16.50;99.90;;;;;;5053217;28;20220;-80
2022/10/24 14:29:17;;;;;;;15.38;10.50;;;16.50;99.90;;;;;;5054749;28;20219;-81
2022/10/24 14:32:13;;;;;;;14.57;10.27;;;16.50;99.90;;;;;;5050510;28;20240;-81
2022/10/24 14:35:02;;;;;;;15.07;9.82;;;16.50;99.90;;;;;;5065017;28;20228;-80
2022/10/24 14:37:51;;;;;;;16.50;9.93;;;16.40;99.90;;;;;;5050241;28;20237;-81
2022/10/24 14:40:42;;;;;;;16.67;10.27;;;16.40;99.90;;;;;;5045333;28;20227;-81